KJVW

John Bell Williams Airport

Raymond, Mississippi, USA
METAR KJVW 140515Z AUTO 33005KT 5SM BR 02/00 A3035 RMK AO2
Observed Flight Rules
Nov-14 @ 05:15 UTC (9 minutes ago)
Wind Visibility Conditions
330° at 5 knots 5 miles
  • Mist
Temperatures Readings
Current 2°C / 36°F
Dewpoint 0°C / 32°F
Humidity 87%
Altimeter 30.35" Hg
Pressure 1028 hPa
Elevation 76
METAR KJVW 140515Z AUTO 33005KT 5SM BR 02/00 A3035 RMK AO2
Observed Flight Rules
Nov-14 @ 05:15 UTC
(9 minutes ago)
Wind Visibility
330° at 5 knots 5 miles
Conditions
  • Mist
Temperature Dewpoint
2°C / 36°F 0°C / 32°F
Humidity Altimeter Pressure
87% 30.35" Hg 1028 hPa